Lee C Fine Memorial Information

FAA: AIZ - ICAO: KAIZ

Lee C Fine Memorial (Airport) Location

State Missouri
County Miller
City Kaiser/Lake Ozark
Lee C Fine Memorial (Airport) is 3 miles southeast of Kaiser/Lake Ozark, MO.
Latitude 38-05-45.7000N
Longitude 092-32-58.1000W
Elevation 868ft

Lee C Fine Memorial METARs

METAR KAIZ 251556Z AUTO VRB05KT CLR M09/M16 A3037 RMK AO2 SLP296 T10941161 FZRANO $
Altimeter 30.37"
Temperature -9.4°C (15.1°F)
Wind 0° at 5KT
Clouds Skies are clear.
Visibility mi
Time observed: 2022-01-25T15:56:00Z

Lee C Fine Memorial (Airport) Details

Status Operational
Activation N/A
Ownership Public
Usage Public
Chart KANSAS CITY
ATC on-site No
Beacon schedule sunset-sunrise
Beacon color clear green

Lee C Fine Memorial (Airport) Contacts

Owner CITY OF OSAGE BEACH
Owner address 1000 CITY PARKWAY, OSAGE BEACH, MO 65065
Owner phone 573-302-2000
Manager WILLIAM BRIDGES
Manager address 1333 S. SAM HOUSTON BOULEVARD, HOUSTON, MO 65483
Manager phone (417) 967-1385

Lee C Fine Memorial Radio Frequencies

Lee C Fine Memorial (Airport) Radio Frequencies

UNICOM 122.8
Common traffic advisory frequency (CTAF) 122.8